This is the latest recevied weather packets stored in our database for station/object N7BTW-13. If no packets are shown the sender has not sent any weather packets the latest 10 day(s).
| Time | Temp. | Humidity | Pressure | Rain* | Wind** | Luminosity | Snow |
|---|---|---|---|---|---|---|---|
| 1787773206 | 23.89° C | 58% | - | 0 mm | - | - | - |
| 1787772610 | 23.89° C | 57% | - | 0 mm | - | - | - |
| 1787772007 | 22.78° C | 61% | - | 0 mm | - | - | - |
| 1787771408 | 22.78° C | 61% | - | 0 mm | - | - | - |
| 1787770806 | 22.22° C | 64% | - | 0 mm | - | - | - |
| 1787770210 | 22.22° C | 66% | - | 0 mm | - | - | - |
| 1787769606 | 21.67° C | 67% | - | 0 mm | - | - | - |
| 1787769009 | 20.56° C | 70% | - | 0 mm | - | - | - |
| 1787768409 | 20.56° C | 71% | - | 0 mm | - | - | - |
| 1787767807 | 20.56° C | 70% | - | 0 mm | - | - | - |
| 1787767206 | 20° C | 73% | - | 0 mm | - | - | - |
| 1787766609 | 19.44° C | 73% | - | 0 mm | - | - | - |
| 1787766008 | 18.89° C | 75% | - | 0 mm | - | - | - |
| 1787765408 | 18.89° C | 76% | - | 0 mm | - | - | - |
| 1787764807 | 19.44° C | 74% | - | 0 mm | - | - | - |
| 1787764209 | 18.89° C | 76% | - | 0 mm | - | - | - |
| 1787763607 | 18.89° C | 77% | - | 0 mm | - | - | - |
| 1787763007 | 17.78° C | 80% | - | 0 mm | - | - | - |
| 1787762406 | 17.22° C | 82% | - | 0 mm | - | - | - |
| 1787761807 | 17.22° C | 83% | - | 0 mm | - | - | - |
| 1787761206 | 17.78° C | 83% | - | 0 mm | - | - | - |
| 1787760608 | 17.22° C | 82% | - | 0 mm | - | - | - |
| 1787760007 | 17.22° C | 84% | - | 0 mm | - | - | - |
| 1787759409 | 16.67° C | 85% | - | 0 mm | - | - | - |
| 1787758809 | 16.67° C | 86% | - | 0 mm | - | - | - |
* Rain latest hour (hover to see other rain measurements)
** Current wind speed in m/s (hover to see current wind gust speed)